Time;durP1;ratioP1;P1;durP2;ratioP2;P2;SDS_P1;SDS_P2;PMS_P1;PMS_P2;Temp;Humidity;BMP_temperature;BMP_pressure;BME280_temperature;BME280_humidity;BME280_pressure;Samples;Min_cycle;Max_cycle;Signal;HPM_P1;HPM_P2
2021/04/04 00:01:13;;;;;;;2.08;0.70;;;;;;;;;;5055308;28;20025;-77
2021/04/04 00:03:39;;;;;;;3.38;1.20;;;;;;;;;;5055171;28;20407;-77
2021/04/04 00:06:06;;;;;;;2.97;0.90;;;;;;;;;;5055290;28;20052;-77
2021/04/04 00:08:32;;;;;;;2.10;0.68;;;;;;;;;;5055640;28;20410;-78
2021/04/04 00:10:58;;;;;;;1.38;0.90;;;;;;;;;;5054957;28;20017;-77
2021/04/04 00:13:24;;;;;;;1.20;0.75;;;;;;;;;;5055389;28;20359;-77
2021/04/04 00:15:51;;;;;;;2.30;0.90;;;;;;;;;;5055585;28;20029;-79
2021/04/04 00:18:17;;;;;;;1.98;0.82;;;;;;;;;;5055060;28;20031;-80
2021/04/04 00:20:43;;;;;;;1.50;0.90;;;;;;;;;;5055055;28;20021;-78
2021/04/04 00:23:09;;;;;;;2.25;1.30;;;;;;;;;;5054600;28;20636;-78
2021/04/04 00:25:35;;;;;;;2.40;1.30;;;;;;;;;;5055603;28;20294;-79
2021/04/04 00:28:01;;;;;;;3.47;1.42;;;;;;;;;;5055033;28;20025;-78
2021/04/04 00:30:28;;;;;;;3.60;1.35;;;;;;;;;;5053352;28;20025;-79
2021/04/04 00:32:54;;;;;;;4.18;1.88;;;;;;;;;;5053754;28;20512;-78
2021/04/04 00:35:21;;;;;;;3.78;1.67;;;;;;;;;;5055875;28;20040;-78
2021/04/04 00:37:48;;;;;;;2.88;1.30;;;;;;;;;;5054344;28;20041;-77
2021/04/04 00:40:17;;;;;;;3.60;1.70;;;;;;;;;;5054896;28;20449;-78
2021/04/04 00:42:44;;;;;;;2.65;1.48;;;;;;;;;;5053419;28;20040;-76
2021/04/04 00:45:11;;;;;;;3.22;1.63;;;;;;;;;;5054175;28;20408;-78
2021/04/04 00:47:37;;;;;;;4.80;1.90;;;;;;;;;;5054575;28;20650;-76
2021/04/04 00:50:04;;;;;;;4.05;1.83;;;;;;;;;;5054983;28;20021;-78
2021/04/04 00:52:31;;;;;;;2.80;1.52;;;;;;;;;;5054078;28;20032;-78
2021/04/04 00:54:57;;;;;;;2.38;1.23;;;;;;;;;;5054079;28;20029;-78
2021/04/04 00:57:23;;;;;;;2.75;1.38;;;;;;;;;;5053917;28;20049;-77
2021/04/04 00:59:50;;;;;;;2.33;1.58;;;;;;;;;;5053884;28;20039;-77
2021/04/04 01:02:16;;;;;;;3.47;1.35;;;;;;;;;;5054232;28;20492;-77
2021/04/04 01:04:45;;;;;;;2.50;1.30;;;;;;;;;;5054165;28;20025;-77
2021/04/04 01:07:11;;;;;;;2.85;1.30;;;;;;;;;;5053693;28;20025;-77
2021/04/04 01:09:37;;;;;;;2.80;1.20;;;;;;;;;;5054283;28;20094;-78
2021/04/04 01:12:13;;;;;;;2.03;1.17;;;;;;;;;;5054144;28;20025;-77
2021/04/04 01:14:45;;;;;;;2.60;1.20;;;;;;;;;;5053441;28;20082;-77
2021/04/04 01:17:12;;;;;;;1.42;0.90;;;;;;;;;;5053887;28;20039;-77
2021/04/04 01:19:38;;;;;;;2.50;1.20;;;;;;;;;;5053459;28;20378;-77
2021/04/04 01:22:21;;;;;;;2.17;1.15;;;;;;;;;;5053810;28;20029;-77
2021/04/04 01:25:06;;;;;;;1.88;1.08;;;;;;;;;;5053722;28;20100;-77
2021/04/04 01:27:44;;;;;;;0.98;0.70;;;;;;;;;;5053407;28;20049;-77
2021/04/04 01:30:12;;;;;;;1.38;0.93;;;;;;;;;;5052618;28;20033;-78
2021/04/04 01:32:39;;;;;;;1.85;1.20;;;;;;;;;;5053797;28;20021;-78
2021/04/04 01:35:10;;;;;;;1.05;0.82;;;;;;;;;;5053813;28;20032;-78
2021/04/04 01:37:37;;;;;;;2.03;0.70;;;;;;;;;;5053509;28;20485;-77
2021/04/04 01:40:06;;;;;;;1.35;1.00;;;;;;;;;;5052224;28;20032;-77
2021/04/04 01:42:34;;;;;;;2.15;1.30;;;;;;;;;;5053756;28;20369;-77
2021/04/04 01:45:01;;;;;;;1.30;0.90;;;;;;;;;;5053472;28;20017;-77
2021/04/04 01:47:27;;;;;;;2.45;1.00;;;;;;;;;;5053549;28;20104;-77
2021/04/04 01:49:54;;;;;;;2.70;1.13;;;;;;;;;;5052099;28;20036;-78
2021/04/04 01:52:21;;;;;;;2.40;1.30;;;;;;;;;;5053447;28;20096;-78
2021/04/04 01:54:48;;;;;;;1.33;0.88;;;;;;;;;;5051520;28;20443;-78
2021/04/04 01:57:15;;;;;;;1.85;1.15;;;;;;;;;;5053037;28;20052;-77
2021/04/04 01:59:43;;;;;;;1.73;1.42;;;;;;;;;;5053233;28;20425;-77
2021/04/04 02:02:10;;;;;;;2.55;1.13;;;;;;;;;;5052898;28;20021;-77
2021/04/04 02:04:37;;;;;;;1.85;1.20;;;;;;;;;;5053105;28;20052;-78
2021/04/04 02:07:05;;;;;;;2.42;1.23;;;;;;;;;;5051304;28;20032;-77
2021/04/04 02:09:32;;;;;;;2.78;1.63;;;;;;;;;;5052552;28;20020;-77
2021/04/04 02:11:58;;;;;;;3.28;1.42;;;;;;;;;;5052884;28;20099;-77
2021/04/04 02:14:25;;;;;;;4.57;1.48;;;;;;;;;;5053129;28;20013;-77
2021/04/04 02:16:52;;;;;;;2.88;1.48;;;;;;;;;;5052408;28;20359;-78
2021/04/04 02:19:20;;;;;;;3.80;1.60;;;;;;;;;;5052724;28;20032;-77
2021/04/04 02:21:48;;;;;;;3.53;1.60;;;;;;;;;;5052694;28;20096;-77
2021/04/04 02:24:15;;;;;;;8.50;2.63;;;;;;;;;;5050986;28;20021;-77
2021/04/04 02:26:41;;;;;;;7.40;2.65;;;;;;;;;;5053179;28;20036;-77
2021/04/04 02:29:08;;;;;;;5.97;2.28;;;;;;;;;;5052796;28;20025;-77
2021/04/04 02:31:40;;;;;;;4.82;2.33;;;;;;;;;;5052282;28;20036;-78
2021/04/04 02:34:07;;;;;;;6.45;2.95;;;;;;;;;;5051241;28;20029;-78
2021/04/04 02:36:34;;;;;;;5.32;2.67;;;;;;;;;;5052754;28;20064;-77
2021/04/04 02:39:12;;;;;;;8.40;3.22;;;;;;;;;;5052192;28;20028;-77
2021/04/04 02:41:39;;;;;;;5.07;2.90;;;;;;;;;;5052510;28;20025;-77
2021/04/04 02:44:05;;;;;;;6.45;3.25;;;;;;;;;;5052095;28;20028;-77
2021/04/04 02:46:33;;;;;;;6.78;3.80;;;;;;;;;;5052649;28;20496;-77
2021/04/04 02:49:01;;;;;;;9.90;4.47;;;;;;;;;;5051252;28;20021;-78
2021/04/04 02:51:32;;;;;;;9.05;4.57;;;;;;;;;;5051976;28;20393;-78
2021/04/04 02:53:59;;;;;;;8.30;4.40;;;;;;;;;;5051389;28;20365;-77
2021/04/04 02:56:25;;;;;;;9.07;4.85;;;;;;;;;;5052208;28;20067;-77
2021/04/04 02:58:54;;;;;;;8.32;4.38;;;;;;;;;;5051822;28;20098;-77
2021/04/04 03:01:20;;;;;;;8.73;4.18;;;;;;;;;;5052247;28;20074;-77
2021/04/04 03:03:49;;;;;;;8.30;4.63;;;;;;;;;;5052259;28;20021;-77
2021/04/04 03:06:16;;;;;;;8.85;5.03;;;;;;;;;;5052317;28;20421;-77
2021/04/04 03:08:46;;;;;;;8.80;4.78;;;;;;;;;;5050985;28;20025;-77
2021/04/04 03:11:14;;;;;;;9.65;5.05;;;;;;;;;;5052234;28;20067;-77
2021/04/04 03:13:42;;;;;;;11.15;5.57;;;;;;;;;;5051782;28;20410;-77
2021/04/04 03:16:09;;;;;;;11.25;6.18;;;;;;;;;;5052065;28;20392;-77
2021/04/04 03:18:35;;;;;;;9.80;5.18;;;;;;;;;;5053811;28;20025;-77
2021/04/04 03:21:05;;;;;;;11.52;6.70;;;;;;;;;;5055662;28;20021;-77
2021/04/04 03:23:31;;;;;;;9.50;4.93;;;;;;;;;;5056246;28;20025;-77
2021/04/04 03:25:58;;;;;;;10.13;5.95;;;;;;;;;;5056334;28;20025;-77
2021/04/04 03:28:25;;;;;;;10.45;5.55;;;;;;;;;;5056442;28;20064;-77
2021/04/04 03:30:51;;;;;;;10.25;4.95;;;;;;;;;;5055961;28;20032;-78
2021/04/04 03:33:21;;;;;;;10.93;5.53;;;;;;;;;;5055487;28;20096;-77
2021/04/04 03:35:49;;;;;;;9.70;5.32;;;;;;;;;;5055825;28;20330;-78
2021/04/04 03:38:16;;;;;;;10.38;5.32;;;;;;;;;;5055742;28;20068;-77
2021/04/04 03:40:43;;;;;;;10.23;6.05;;;;;;;;;;5055386;28;20013;-77
2021/04/04 03:43:30;;;;;;;11.32;5.85;;;;;;;;;;5055850;28;20025;-77
2021/04/04 03:46:00;;;;;;;11.65;6.63;;;;;;;;;;5055722;28;20466;-77
2021/04/04 03:48:28;;;;;;;11.77;6.68;;;;;;;;;;5055298;28;20025;-77
2021/04/04 03:50:55;;;;;;;10.70;5.97;;;;;;;;;;5055589;28;20025;-77
2021/04/04 03:53:22;;;;;;;11.38;6.97;;;;;;;;;;5055612;28;20021;-77
2021/04/04 03:55:51;;;;;;;13.65;7.78;;;;;;;;;;5054866;28;20071;-77
2021/04/04 03:58:18;;;;;;;12.68;7.10;;;;;;;;;;5055253;28;20041;-77
2021/04/04 04:00:45;;;;;;;11.48;7.10;;;;;;;;;;5055276;28;20040;-77
2021/04/04 04:03:12;;;;;;;12.63;7.80;;;;;;;;;;5055169;28;20033;-77
2021/04/04 04:05:38;;;;;;;12.63;7.22;;;;;;;;;;5055529;28;20114;-77
2021/04/04 04:08:05;;;;;;;12.38;6.70;;;;;;;;;;5055250;28;20394;-77
2021/04/04 04:10:31;;;;;;;11.45;6.30;;;;;;;;;;5054925;28;20032;-77
2021/04/04 04:12:59;;;;;;;10.25;5.82;;;;;;;;;;5055146;28;20033;-77
2021/04/04 04:15:26;;;;;;;10.70;6.38;;;;;;;;;;5054823;28;20036;-77
2021/04/04 04:17:52;;;;;;;9.10;5.00;;;;;;;;;;5053702;28;20056;-77
2021/04/04 04:20:18;;;;;;;11.75;6.57;;;;;;;;;;5055008;28;20053;-77
2021/04/04 04:22:45;;;;;;;11.05;6.53;;;;;;;;;;5054733;28;20428;-76
2021/04/04 04:25:12;;;;;;;11.13;5.65;;;;;;;;;;5055109;28;20489;-77
2021/04/04 04:27:40;;;;;;;12.55;6.97;;;;;;;;;;5054810;28;20029;-77
2021/04/04 04:30:07;;;;;;;9.98;6.10;;;;;;;;;;5054029;28;20029;-77
2021/04/04 04:32:36;;;;;;;12.75;7.20;;;;;;;;;;5054810;28;20504;-78
2021/04/04 04:35:03;;;;;;;11.88;7.63;;;;;;;;;;5054874;28;20021;-77
2021/04/04 04:37:30;;;;;;;12.32;7.63;;;;;;;;;;5054192;28;20033;-77
2021/04/04 04:39:58;;;;;;;13.27;8.18;;;;;;;;;;5053393;28;20029;-77
2021/04/04 04:42:26;;;;;;;12.93;7.85;;;;;;;;;;5054677;28;20025;-77
2021/04/04 04:44:53;;;;;;;12.82;7.45;;;;;;;;;;5054327;28;20021;-77
2021/04/04 04:47:19;;;;;;;14.23;7.57;;;;;;;;;;5053497;28;20025;-79
2021/04/04 04:49:46;;;;;;;12.80;7.78;;;;;;;;;;5054600;28;20142;-79
2021/04/04 04:52:13;;;;;;;14.13;8.68;;;;;;;;;;5054059;28;20105;-78
2021/04/04 04:54:43;;;;;;;14.18;7.45;;;;;;;;;;5054393;28;20099;-78
2021/04/04 04:57:10;;;;;;;11.50;7.25;;;;;;;;;;5052631;28;20049;-78
2021/04/04 04:59:36;;;;;;;12.80;7.22;;;;;;;;;;5053900;28;20017;-78
2021/04/04 05:02:03;;;;;;;13.43;7.65;;;;;;;;;;5054319;28;20090;-78
2021/04/04 05:04:30;;;;;;;14.10;8.27;;;;;;;;;;5054075;28;20092;-78
2021/04/04 05:06:57;;;;;;;11.82;7.28;;;;;;;;;;5052992;28;20389;-78
2021/04/04 05:09:23;;;;;;;16.63;9.43;;;;;;;;;;5052716;28;20017;-78
2021/04/04 05:11:50;;;;;;;13.00;7.15;;;;;;;;;;5053708;28;20536;-77
2021/04/04 05:14:16;;;;;;;13.60;8.13;;;;;;;;;;5053920;28;20025;-78
2021/04/04 05:16:43;;;;;;;13.48;8.05;;;;;;;;;;5053918;28;20104;-77
2021/04/04 05:19:10;;;;;;;13.48;7.85;;;;;;;;;;5053429;28;20017;-77
2021/04/04 05:21:37;;;;;;;12.20;7.80;;;;;;;;;;5052424;28;20033;-78
2021/04/04 05:24:13;;;;;;;14.25;8.25;;;;;;;;;;5054055;28;20100;-78
2021/04/04 05:26:46;;;;;;;14.93;9.35;;;;;;;;;;5053444;28;20377;-78
2021/04/04 05:29:14;;;;;;;18.15;10.80;;;;;;;;;;5053718;28;20104;-78
2021/04/04 05:31:47;;;;;;;17.83;10.13;;;;;;;;;;5053680;28;20122;-78
2021/04/04 05:34:16;;;;;;;14.68;9.55;;;;;;;;;;5053759;28;20127;-77
2021/04/04 05:37:01;;;;;;;14.23;8.32;;;;;;;;;;5053463;28;20026;-77
2021/04/04 05:39:29;;;;;;;14.88;8.88;;;;;;;;;;5053544;28;20056;-77
2021/04/04 05:41:59;;;;;;;16.02;9.45;;;;;;;;;;5052500;28;20421;-78
2021/04/04 05:44:34;;;;;;;12.70;8.30;;;;;;;;;;5054401;28;20358;-77
2021/04/04 05:47:13;;;;;;;14.70;9.35;;;;;;;;;;5054539;28;20549;-77
2021/04/04 05:49:44;;;;;;;14.88;9.52;;;;;;;;;;5053799;28;20025;-79
2021/04/04 05:52:22;;;;;;;16.83;10.82;;;;;;;;;;5054392;28;20060;-78
2021/04/04 05:55:07;;;;;;;18.00;9.57;;;;;;;;;;5052860;28;20373;-79
2021/04/04 05:57:34;;;;;;;18.60;9.95;;;;;;;;;;5051760;28;20409;-78
2021/04/04 06:00:10;;;;;;;18.52;10.95;;;;;;;;;;5053204;28;20017;-78
2021/04/04 06:02:46;;;;;;;19.63;12.32;;;;;;;;;;5053079;28;20104;-79
2021/04/04 06:05:12;;;;;;;20.00;11.80;;;;;;;;;;5054407;28;20086;-78
2021/04/04 06:07:38;;;;;;;21.65;13.13;;;;;;;;;;5054642;28;20052;-77
2021/04/04 06:10:07;;;;;;;14.90;9.60;;;;;;;;;;5054648;28;20021;-77
2021/04/04 06:12:43;;;;;;;16.40;9.60;;;;;;;;;;5052319;28;20024;-77
2021/04/04 06:15:27;;;;;;;16.77;10.25;;;;;;;;;;5052852;28;20078;-77
2021/04/04 06:18:12;;;;;;;16.02;9.80;;;;;;;;;;5052991;28;20126;-77
2021/04/04 06:20:41;;;;;;;16.73;10.40;;;;;;;;;;5053004;28;20619;-77
2021/04/04 06:23:21;;;;;;;16.58;10.15;;;;;;;;;;5051491;28;20036;-78
2021/04/04 06:25:54;;;;;;;18.17;11.50;;;;;;;;;;5051895;28;20510;-79
2021/04/04 06:28:23;;;;;;;18.35;11.95;;;;;;;;;;5052692;28;20134;-78
2021/04/04 06:31:04;;;;;;;18.88;11.30;;;;;;;;;;5052220;28;20024;-77
2021/04/04 06:33:37;;;;;;;20.83;12.18;;;;;;;;;;5052748;28;20424;-78
2021/04/04 06:36:22;;;;;;;17.90;11.50;;;;;;;;;;5052600;28;20563;-77
2021/04/04 06:38:58;;;;;;;23.15;14.13;;;;;;;;;;5051578;28;20040;-76
2021/04/04 06:41:24;;;;;;;29.50;17.35;;;;;;;;;;5052519;28;20048;-76
2021/04/04 06:44:02;;;;;;;20.70;12.73;;;;;;;;;;5052756;28;20362;-76
2021/04/04 06:46:28;;;;;;;21.40;13.00;;;;;;;;;;5052702;28;20060;-76
2021/04/04 06:48:58;;;;;;;20.27;12.73;;;;;;;;;;5052674;28;20032;-77
2021/04/04 06:51:42;;;;;;;22.77;12.43;;;;;;;;;;5052606;28;20025;-77
2021/04/04 06:54:19;;;;;;;23.52;14.25;;;;;;;;;;5052453;28;20377;-78
2021/04/04 06:56:48;;;;;;;18.33;11.20;;;;;;;;;;5052083;28;20413;-78
2021/04/04 06:59:20;;;;;;;21.02;13.10;;;;;;;;;;5051894;28;20473;-76
2021/04/04 07:02:05;;;;;;;24.23;14.85;;;;;;;;;;5052293;28;20029;-78
2021/04/04 07:04:40;;;;;;;19.42;10.90;;;;;;;;;;5052162;28;20091;-78
2021/04/04 07:07:12;;;;;;;17.27;11.30;;;;;;;;;;5053381;28;20021;-77
2021/04/04 07:09:57;;;;;;;16.27;9.85;;;;;;;;;;5052806;28;20108;-77
2021/04/04 07:12:41;;;;;;;16.38;10.50;;;;;;;;;;5052680;28;20091;-76
2021/04/04 07:15:26;;;;;;;17.63;10.48;;;;;;;;;;5052217;28;20028;-77
2021/04/04 07:17:58;;;;;;;18.15;11.73;;;;;;;;;;5052702;28;20048;-78
2021/04/04 07:20:43;;;;;;;17.27;11.27;;;;;;;;;;5051671;28;20021;-77
2021/04/04 07:23:24;;;;;;;15.45;10.18;;;;;;;;;;5052181;28;20029;-77
2021/04/04 07:26:09;;;;;;;17.13;10.68;;;;;;;;;;5051876;28;20120;-78
2021/04/04 07:28:42;;;;;;;16.25;10.63;;;;;;;;;;5052144;28;20517;-78
2021/04/04 07:31:12;;;;;;;20.08;13.40;;;;;;;;;;5052641;28;20052;-78
2021/04/04 07:33:57;;;;;;;22.73;13.48;;;;;;;;;;5054354;28;20017;-78
2021/04/04 07:36:39;;;;;;;17.98;10.73;;;;;;;;;;5053121;28;20029;-77
2021/04/04 07:39:31;;;;;;;20.40;13.00;;;;;;;;;;5050763;28;20047;-77
2021/04/04 07:42:12;;;;;;;21.42;13.52;;;;;;;;;;5044266;28;20409;-78
2021/04/04 07:44:48;;;;;;;20.00;12.63;;;;;;;;;;5051030;28;20434;-77
2021/04/04 07:47:17;;;;;;;19.20;12.52;;;;;;;;;;5051664;28;20428;-77
2021/04/04 07:49:45;;;;;;;20.75;13.32;;;;;;;;;;5052016;28;20028;-77
2021/04/04 07:52:32;;;;;;;22.73;14.82;;;;;;;;;;5051808;28;20044;-77
2021/04/04 07:55:18;;;;;;;24.92;14.00;;;;;;;;;;5051258;28;20055;-78
2021/04/04 07:57:54;;;;;;;20.20;13.90;;;;;;;;;;5051265;28;20083;-77
2021/04/04 08:00:21;;;;;;;21.42;13.88;;;;;;;;;;5051456;28;20474;-77
2021/04/04 08:03:01;;;;;;;22.23;12.60;;;;;;;;;;5052884;28;20104;-78
2021/04/04 08:05:29;;;;;;;28.13;17.85;;;;;;;;;;5059017;28;20087;-77
2021/04/04 08:08:00;;;;;;;25.23;14.65;;;;;;;;;;5057245;28;20052;-78
2021/04/04 08:10:27;;;;;;;30.25;16.83;;;;;;;;;;5058640;28;20503;-78
2021/04/04 08:13:03;;;;;;;27.80;15.13;;;;;;;;;;5055642;28;20469;-79
2021/04/04 08:15:50;;;;;;;19.60;11.90;;;;;;;;;;5055598;28;20066;-77
2021/04/04 08:18:16;;;;;;;17.27;9.85;;;;;;;;;;5057914;28;20397;-78
2021/04/04 08:20:44;;;;;;;15.73;10.63;;;;;;;;;;5057137;28;20029;-80
2021/04/04 08:23:18;;;;;;;15.27;10.18;;;;;;;;;;5055959;28;20099;-78
2021/04/04 08:25:59;;;;;;;16.23;9.77;;;;;;;;;;5055654;28;20017;-79
2021/04/04 08:28:29;;;;;;;12.80;7.55;;;;;;;;;;5053413;28;20029;-79
2021/04/04 08:30:56;;;;;;;22.23;13.95;;;;;;;;;;5054904;28;20436;-79
2021/04/04 08:33:26;;;;;;;14.15;8.90;;;;;;;;;;5055648;28;20021;-79
2021/04/04 08:35:53;;;;;;;16.23;10.20;;;;;;;;;;5054906;28;20048;-78
2021/04/04 08:38:38;;;;;;;16.98;10.38;;;;;;;;;;5054726;28;20086;-77
2021/04/04 08:41:05;;;;;;;17.90;11.95;;;;;;;;;;5055136;28;20025;-78
2021/04/04 08:43:31;;;;;;;18.13;11.13;;;;;;;;;;5054863;28;20036;-78
2021/04/04 08:46:03;;;;;;;19.17;11.85;;;;;;;;;;5054730;28;20485;-77
2021/04/04 08:48:30;;;;;;;14.48;10.73;;;;;;;;;;5053519;28;20473;-77
2021/04/04 08:51:00;;;;;;;19.75;10.63;;;;;;;;;;5054433;28;20114;-78
2021/04/04 08:53:31;;;;;;;18.85;12.27;;;;;;;;;;5054797;28;20052;-78
2021/04/04 08:55:59;;;;;;;16.40;8.93;;;;;;;;;;5052885;28;20032;-77
2021/04/04 08:58:34;;;;;;;17.35;10.52;;;;;;;;;;5054030;28;20048;-79
2021/04/04 09:01:04;;;;;;;14.68;9.48;;;;;;;;;;5054432;28;20029;-79
2021/04/04 09:03:31;;;;;;;13.38;8.70;;;;;;;;;;5054792;28;20029;-78
2021/04/04 09:06:16;;;;;;;23.45;10.32;;;;;;;;;;5053012;28;20029;-77
2021/04/04 09:08:42;;;;;;;18.58;10.68;;;;;;;;;;5054206;28;20074;-77
2021/04/04 09:11:12;;;;;;;24.35;17.15;;;;;;;;;;5053869;28;20028;-77
2021/04/04 09:13:39;;;;;;;19.20;11.85;;;;;;;;;;5053979;28;20482;-78
2021/04/04 09:16:10;;;;;;;18.73;11.25;;;;;;;;;;5054139;28;20029;-77
2021/04/04 09:18:49;;;;;;;17.90;10.05;;;;;;;;;;5054003;28;20056;-79
2021/04/04 09:21:16;;;;;;;15.35;10.00;;;;;;;;;;5054807;28;20032;-78
2021/04/04 09:23:46;;;;;;;16.52;9.25;;;;;;;;;;5055660;28;20379;-78
2021/04/04 09:26:15;;;;;;;16.90;10.38;;;;;;;;;;5054024;28;20032;-78
2021/04/04 09:28:42;;;;;;;21.20;12.45;;;;;;;;;;5054317;28;20021;-79
2021/04/04 09:31:17;;;;;;;19.17;11.40;;;;;;;;;;5054315;28;20017;-79
2021/04/04 09:33:44;;;;;;;13.45;7.80;;;;;;;;;;5054216;28;20028;-79
2021/04/04 09:36:10;;;;;;;14.40;8.32;;;;;;;;;;5054366;28;20071;-78
2021/04/04 09:38:41;;;;;;;14.40;8.95;;;;;;;;;;5052483;28;20025;-78
2021/04/04 09:41:08;;;;;;;18.20;10.55;;;;;;;;;;5053529;28;20143;-77
2021/04/04 09:43:41;;;;;;;18.40;10.90;;;;;;;;;;5053747;28;20086;-78
2021/04/04 09:46:07;;;;;;;19.33;10.25;;;;;;;;;;5053525;28;20033;-78
2021/04/04 09:48:39;;;;;;;14.82;9.38;;;;;;;;;;5053466;28;20524;-77
2021/04/04 09:51:08;;;;;;;16.52;9.68;;;;;;;;;;5053368;28;20103;-77
2021/04/04 09:53:35;;;;;;;18.40;11.02;;;;;;;;;;5052930;28;20017;-78
2021/04/04 09:56:05;;;;;;;15.68;10.27;;;;;;;;;;5053026;28;20178;-78
2021/04/04 09:58:32;;;;;;;19.30;12.10;;;;;;;;;;5051882;28;20111;-77
2021/04/04 10:01:00;;;;;;;15.75;9.35;;;;;;;;;;5051563;28;20028;-77
2021/04/04 10:03:26;;;;;;;14.07;8.93;;;;;;;;;;5052158;28;20054;-77
2021/04/04 10:05:53;;;;;;;17.00;10.63;;;;;;;;;;5053164;28;20056;-77
2021/04/04 10:08:22;;;;;;;13.57;8.00;;;;;;;;;;5052733;28;20047;-76
2021/04/04 10:10:50;;;;;;;14.88;8.98;;;;;;;;;;5053643;28;20082;-77
2021/04/04 10:13:17;;;;;;;15.57;8.95;;;;;;;;;;5052916;28;20389;-77
2021/04/04 10:15:47;;;;;;;15.77;9.10;;;;;;;;;;5052589;28;20497;-77
2021/04/04 10:18:15;;;;;;;17.10;10.23;;;;;;;;;;5052737;28;20033;-76
2021/04/04 10:20:48;;;;;;;14.52;9.15;;;;;;;;;;5052801;28;20355;-77
2021/04/04 10:23:15;;;;;;;18.13;11.73;;;;;;;;;;5052560;28;20029;-78
2021/04/04 10:25:57;;;;;;;16.55;11.20;;;;;;;;;;5051581;28;20048;-77
2021/04/04 10:28:23;;;;;;;15.15;10.00;;;;;;;;;;5051874;28;20035;-77
2021/04/04 10:30:56;;;;;;;19.35;11.85;;;;;;;;;;5052698;28;20029;-78
2021/04/04 10:33:22;;;;;;;19.52;10.90;;;;;;;;;;5052910;28;20470;-78
2021/04/04 10:35:49;;;;;;;19.42;10.95;;;;;;;;;;5052768;28;20021;-78
2021/04/04 10:38:23;;;;;;;19.77;12.23;;;;;;;;;;5051172;28;20106;-78
2021/04/04 10:40:53;;;;;;;17.70;10.50;;;;;;;;;;5051443;28;20052;-78
2021/04/04 10:43:21;;;;;;;21.70;10.80;;;;;;;;;;5052148;28;20025;-77
2021/04/04 10:45:54;;;;;;;18.77;10.65;;;;;;;;;;5051192;28;20052;-77
2021/04/04 10:48:21;;;;;;;15.95;10.10;;;;;;;;;;5052424;28;20551;-78
2021/04/04 10:50:48;;;;;;;15.13;8.88;;;;;;;;;;5052060;28;20074;-78
2021/04/04 10:53:16;;;;;;;17.13;11.05;;;;;;;;;;5052472;28;20016;-78
2021/04/04 10:55:42;;;;;;;19.63;11.20;;;;;;;;;;5052262;28;20021;-77
2021/04/04 10:58:09;;;;;;;28.40;16.65;;;;;;;;;;5051871;28;20129;-77
2021/04/04 11:00:35;;;;;;;15.52;9.52;;;;;;;;;;5052671;28;20137;-77
2021/04/04 11:03:03;;;;;;;17.83;11.23;;;;;;;;;;5052772;28;20470;-78
2021/04/04 11:05:29;;;;;;;16.33;11.07;;;;;;;;;;5050527;28;20104;-78
2021/04/04 11:07:56;;;;;;;15.10;8.70;;;;;;;;;;5052490;28;20079;-78
2021/04/04 11:10:23;;;;;;;16.67;10.27;;;;;;;;;;5050983;28;20496;-78
2021/04/04 11:12:50;;;;;;;19.83;11.73;;;;;;;;;;5052496;28;20025;-78
2021/04/04 11:15:17;;;;;;;13.15;8.52;;;;;;;;;;5052116;28;20409;-77
2021/04/04 11:17:45;;;;;;;13.70;8.82;;;;;;;;;;5051643;28;20112;-77
2021/04/04 11:20:11;;;;;;;16.77;11.23;;;;;;;;;;5052237;28;20017;-77
2021/04/04 11:22:40;;;;;;;20.98;11.75;;;;;;;;;;5052457;28;20033;-77
2021/04/04 11:25:09;;;;;;;18.23;11.40;;;;;;;;;;5051763;28;20106;-78
2021/04/04 11:27:48;;;;;;;22.27;12.98;;;;;;;;;;5050825;28;20055;-78
2021/04/04 11:30:16;;;;;;;21.70;10.30;;;;;;;;;;5050905;28;20430;-79
2021/04/04 11:32:43;;;;;;;18.98;10.27;;;;;;;;;;5052628;28;20028;-79
2021/04/04 11:35:10;;;;;;;23.30;14.20;;;;;;;;;;5053443;28;20021;-78
2021/04/04 11:37:37;;;;;;;17.95;9.02;;;;;;;;;;5052272;28;20116;-78
2021/04/04 11:40:12;;;;;;;19.20;12.20;;;;;;;;;;5054172;28;20013;-77
2021/04/04 11:42:39;;;;;;;19.45;11.90;;;;;;;;;;5055850;28;20029;-78
2021/04/04 11:45:05;;;;;;;18.20;11.50;;;;;;;;;;5055748;28;20021;-77
2021/04/04 11:47:31;;;;;;;21.40;12.07;;;;;;;;;;5055595;28;20082;-77
2021/04/04 11:49:58;;;;;;;15.23;8.55;;;;;;;;;;5056231;28;20035;-79
2021/04/04 11:52:24;;;;;;;13.02;9.00;;;;;;;;;;5055715;28;20425;-79
2021/04/04 11:54:51;;;;;;;11.77;8.30;;;;;;;;;;5055668;28;20025;-79
2021/04/04 11:57:20;;;;;;;15.55;8.50;;;;;;;;;;5055330;28;20045;-78
2021/04/04 11:59:53;;;;;;;12.73;8.32;;;;;;;;;;5055501;28;20496;-78
2021/04/04 12:02:20;;;;;;;14.20;9.77;;;;;;;;;;5054467;28;20028;-78
2021/04/04 12:05:07;;;;;;;17.80;8.75;;;;;;;;;;5055612;28;20017;-78
2021/04/04 12:07:35;;;;;;;15.40;9.73;;;;;;;;;;5054918;28;20025;-77
2021/04/04 12:10:01;;;;;;;19.10;11.40;;;;;;;;;;5055589;28;20157;-79
2021/04/04 12:12:35;;;;;;;22.15;12.18;;;;;;;;;;5054069;28;20029;-76
2021/04/04 12:15:02;;;;;;;20.27;10.52;;;;;;;;;;5053511;28;20023;-77
2021/04/04 12:17:30;;;;;;;15.88;9.13;;;;;;;;;;5055221;28;20037;-77
2021/04/04 12:19:57;;;;;;;13.60;8.40;;;;;;;;;;5056033;28;20020;-78
2021/04/04 12:22:38;;;;;;;13.48;7.90;;;;;;;;;;5056177;28;20029;-77
2021/04/04 12:25:05;;;;;;;15.88;8.77;;;;;;;;;;5056000;28;20025;-76
2021/04/04 12:27:31;;;;;;;12.88;8.00;;;;;;;;;;5055300;28;20101;-78
2021/04/04 12:29:58;;;;;;;18.23;10.98;;;;;;;;;;5055152;28;20104;-78
2021/04/04 12:32:31;;;;;;;16.13;8.73;;;;;;;;;;5056279;28;20429;-79
2021/04/04 12:35:07;;;;;;;16.90;9.63;;;;;;;;;;5056417;28;20021;-79
2021/04/04 12:37:34;;;;;;;19.25;12.45;;;;;;;;;;5053984;28;20079;-78
2021/04/04 12:40:04;;;;;;;17.05;10.25;;;;;;;;;;5054897;28;20493;-78
2021/04/04 12:42:32;;;;;;;21.75;10.50;;;;;;;;;;5053016;28;20092;-79
2021/04/04 12:44:59;;;;;;;21.23;11.63;;;;;;;;;;5054815;28;20470;-77
2021/04/04 12:47:26;;;;;;;22.40;12.95;;;;;;;;;;5056737;28;20029;-77
2021/04/04 12:49:54;;;;;;;18.90;10.20;;;;;;;;;;5055212;28;20428;-77
2021/04/04 12:52:43;;;;;;;13.95;7.88;;;;;;;;;;5053178;28;20021;-78
2021/04/04 12:55:21;;;;;;;16.30;8.98;;;;;;;;;;5054560;28;20017;-78
2021/04/04 12:57:49;;;;;;;23.95;12.27;;;;;;;;;;5054053;28;20391;-78
2021/04/04 13:00:18;;;;;;;20.88;12.65;;;;;;;;;;5054407;28;20497;-77
2021/04/04 13:02:54;;;;;;;21.23;11.35;;;;;;;;;;5053807;28;20029;-78
2021/04/04 13:05:21;;;;;;;14.23;7.95;;;;;;;;;;5054329;28;20017;-78
2021/04/04 13:07:47;;;;;;;16.90;9.38;;;;;;;;;;5054185;28;20031;-78
2021/04/04 13:10:14;;;;;;;17.88;9.55;;;;;;;;;;5053798;28;20028;-78
2021/04/04 13:12:41;;;;;;;18.25;11.45;;;;;;;;;;5054073;28;20036;-78
2021/04/04 13:15:08;;;;;;;21.63;11.10;;;;;;;;;;5054180;28;20036;-78
2021/04/04 13:17:43;;;;;;;29.02;14.57;;;;;;;;;;5053650;28;20401;-77
2021/04/04 13:20:10;;;;;;;19.23;11.55;;;;;;;;;;5054046;28;20021;-77
2021/04/04 13:22:39;;;;;;;36.58;16.13;;;;;;;;;;5053883;28;20025;-78
2021/04/04 13:25:08;;;;;;;20.13;11.20;;;;;;;;;;5053538;28;20021;-77
2021/04/04 13:27:36;;;;;;;22.33;13.30;;;;;;;;;;5053830;28;20017;-78
2021/04/04 13:30:03;;;;;;;23.35;11.85;;;;;;;;;;5053791;28;20028;-78
2021/04/04 13:32:42;;;;;;;33.28;17.38;;;;;;;;;;5053322;28;20027;-78
2021/04/04 13:35:09;;;;;;;33.88;13.35;;;;;;;;;;5053767;28;20017;-77
2021/04/04 13:37:42;;;;;;;22.38;13.45;;;;;;;;;;5053722;28;20033;-78
2021/04/04 13:40:11;;;;;;;29.00;15.60;;;;;;;;;;5053405;28;20024;-77
2021/04/04 13:42:47;;;;;;;22.73;13.05;;;;;;;;;;5053827;28;20104;-77
2021/04/04 13:45:32;;;;;;;20.13;10.30;;;;;;;;;;5053170;28;20021;-78
2021/04/04 13:47:58;;;;;;;14.68;9.10;;;;;;;;;;5053451;28;20029;-78
2021/04/04 13:50:25;;;;;;;18.52;12.00;;;;;;;;;;5053469;28;20389;-78
2021/04/04 13:52:51;;;;;;;16.77;9.20;;;;;;;;;;5052743;28;20028;-78
2021/04/04 13:55:27;;;;;;;21.20;12.80;;;;;;;;;;5053248;28;20025;-78
2021/04/04 13:57:53;;;;;;;15.80;9.48;;;;;;;;;;5053128;28;20052;-78
2021/04/04 14:00:19;;;;;;;15.05;9.05;;;;;;;;;;5053059;28;20481;-78
2021/04/04 14:02:46;;;;;;;16.98;9.38;;;;;;;;;;5052622;28;20082;-77
2021/04/04 14:05:27;;;;;;;14.52;8.55;;;;;;;;;;5051862;28;20021;-77
2021/04/04 14:07:54;;;;;;;17.40;9.13;;;;;;;;;;5052656;28;20096;-77
2021/04/04 14:10:20;;;;;;;21.05;11.02;;;;;;;;;;5052975;28;20504;-77
2021/04/04 14:12:47;;;;;;;20.42;10.65;;;;;;;;;;5052851;28;20025;-77
2021/04/04 14:15:13;;;;;;;21.90;11.38;;;;;;;;;;5052380;28;20543;-77
2021/04/04 14:17:39;;;;;;;17.95;9.65;;;;;;;;;;5052936;28;20098;-77
2021/04/04 14:20:07;;;;;;;23.95;11.52;;;;;;;;;;5053364;28;20335;-76
2021/04/04 14:22:33;;;;;;;21.52;10.82;;;;;;;;;;5052663;28;20021;-76
2021/04/04 14:25:00;;;;;;;23.63;10.25;;;;;;;;;;5052778;28;20021;-76
2021/04/04 14:27:26;;;;;;;21.75;11.63;;;;;;;;;;5052208;28;20017;-76
2021/04/04 14:29:53;;;;;;;16.98;7.88;;;;;;;;;;5052643;28;20087;-77
2021/04/04 14:32:19;;;;;;;16.15;8.27;;;;;;;;;;5052586;28;20493;-77
2021/04/04 14:34:45;;;;;;;20.02;9.88;;;;;;;;;;5052262;28;20053;-79
2021/04/04 14:37:12;;;;;;;22.38;12.00;;;;;;;;;;5052549;28;20041;-77
2021/04/04 14:39:38;;;;;;;14.60;9.07;;;;;;;;;;5052752;28;20035;-77
2021/04/04 14:42:04;;;;;;;22.77;13.60;;;;;;;;;;5052290;28;20089;-77
2021/04/04 14:44:30;;;;;;;22.05;11.98;;;;;;;;;;5052489;28;20025;-77